createdAt,value
2023-10-09T00:01:18.917Z,7.53
2023-10-09T00:04:21.802Z,7.80
2023-10-09T00:07:24.352Z,7.18
2023-10-09T00:10:36.199Z,7.28
2023-10-09T00:13:38.606Z,6.95
2023-10-09T00:16:57.484Z,6.50
2023-10-09T00:20:01.440Z,6.50
2023-10-09T00:23:03.241Z,6.00
2023-10-09T00:26:17.333Z,6.13
2023-10-09T00:29:24.648Z,6.35
2023-10-09T00:32:27.874Z,7.20
2023-10-09T00:35:39.031Z,7.15
2023-10-09T00:38:50.237Z,6.65
2023-10-09T00:41:51.597Z,7.35
2023-10-09T00:44:52.913Z,6.90
2023-10-09T00:47:58.454Z,7.00
2023-10-09T00:51:01.286Z,6.50
2023-10-09T00:54:08.361Z,6.43
2023-10-09T00:57:14.486Z,7.00
2023-10-09T01:00:32.914Z,6.35
2023-10-09T01:03:35.070Z,6.15
2023-10-09T01:06:44.399Z,6.63
2023-10-09T01:09:46.088Z,7.05
2023-10-09T01:12:49.266Z,6.45
2023-10-09T01:15:52.921Z,5.75
2023-10-09T01:18:58.082Z,7.25
2023-10-09T01:22:13.333Z,6.80
2023-10-09T01:25:14.692Z,7.32
2023-10-09T01:28:16.828Z,6.63
2023-10-09T01:31:21.866Z,7.00
2023-10-09T01:34:35.844Z,6.15
2023-10-09T01:37:38.256Z,6.75
2023-10-09T01:40:39.620Z,7.88
2023-10-09T01:43:45.738Z,7.50
2023-10-09T01:46:47.069Z,7.70
2023-10-09T01:49:53.881Z,7.60
2023-10-09T01:52:55.230Z,7.70
2023-10-09T01:55:56.714Z,8.25
2023-10-09T01:59:03.547Z,7.25
2023-10-09T02:02:29.028Z,8.10
2023-10-09T02:05:34.706Z,7.03
2023-10-09T02:08:37.112Z,7.47
2023-10-09T02:11:42.502Z,8.88
2023-10-09T02:14:45.230Z,7.30
2023-10-09T02:18:02.153Z,7.88
2023-10-09T02:21:03.709Z,7.85
2023-10-09T02:24:06.989Z,7.15
2023-10-09T02:27:08.449Z,7.00
2023-10-09T02:30:38.908Z,7.82
2023-10-09T02:33:40.592Z,7.35
2023-10-09T02:36:50.041Z,8.68
2023-10-09T02:39:53.593Z,7.25
2023-10-09T02:42:54.932Z,6.90
2023-10-09T02:45:56.284Z,6.57
2023-10-09T02:49:04.307Z,7.85
2023-10-09T02:52:08.634Z,6.25
2023-10-09T02:58:22.020Z,6.28
2023-10-09T03:01:23.333Z,7.22
2023-10-09T03:04:25.554Z,7.65
2023-10-09T03:07:27.192Z,7.03
2023-10-09T03:10:28.517Z,7.25
2023-10-09T03:13:33.028Z,6.43
2023-10-09T03:16:34.481Z,6.97
2023-10-09T03:19:38.673Z,7.43
2023-10-09T03:22:41.016Z,6.30
2023-10-09T03:25:46.487Z,6.13
2023-10-09T03:28:48.220Z,5.90
2023-10-09T03:31:51.693Z,6.03
2023-10-09T03:34:53.177Z,5.50
2023-10-09T03:37:58.350Z,5.97
2023-10-09T03:41:01.894Z,5.10
2023-10-09T03:44:03.487Z,5.32
2023-10-09T03:47:06.122Z,5.35
2023-10-09T03:50:24.868Z,5.85
2023-10-09T03:53:26.838Z,5.30
2023-10-09T03:56:28.183Z,6.53
2023-10-09T03:59:31.707Z,5.47
2023-10-09T04:02:33.055Z,6.50
2023-10-09T04:05:34.390Z,5.40
2023-10-09T04:08:36.543Z,5.47
2023-10-09T04:11:40.544Z,6.25
2023-10-09T04:14:55.611Z,6.38
2023-10-09T04:17:58.120Z,5.22
2023-10-09T04:21:18.226Z,4.63
2023-10-09T04:24:19.624Z,4.93
2023-10-09T04:27:27.928Z,5.15
2023-10-09T04:30:29.487Z,4.90
2023-10-09T04:33:31.362Z,5.80
2023-10-09T04:36:47.143Z,4.65
2023-10-09T04:40:11.380Z,4.63
2023-10-09T04:43:21.430Z,4.63
2023-10-09T04:46:24.574Z,4.85
2023-10-09T04:49:28.981Z,4.70
2023-10-09T04:55:58.622Z,5.05
2023-10-09T04:59:04.741Z,4.85
2023-10-09T05:02:08.024Z,4.25
2023-10-09T05:05:38.168Z,5.10
2023-10-09T05:08:47.050Z,5.30
2023-10-09T05:11:54.756Z,5.63
2023-10-09T05:15:14.256Z,8.85
2023-10-09T05:18:17.400Z,5.53
2023-10-09T05:21:34.453Z,5.53
2023-10-09T05:24:46.411Z,4.57
2023-10-09T05:27:51.850Z,5.80
2023-10-09T05:31:09.318Z,8.02
2023-10-09T05:34:13.410Z,6.55
2023-10-09T05:37:26.152Z,6.55
2023-10-09T05:40:32.139Z,5.60
2023-10-09T05:43:52.143Z,4.38
2023-10-09T05:47:12.207Z,4.35
2023-10-09T05:50:16.428Z,4.88
2023-10-09T05:53:36.098Z,4.95
2023-10-09T05:56:56.015Z,5.68
2023-10-09T06:00:32.631Z,6.95
2023-10-09T06:03:52.817Z,7.07
2023-10-09T06:06:57.685Z,5.07
2023-10-09T06:10:11.619Z,4.82
2023-10-09T06:13:32.956Z,4.70
2023-10-09T06:16:40.577Z,4.15
2023-10-09T06:19:44.417Z,4.75
2023-10-09T06:22:58.075Z,4.40
2023-10-09T06:26:06.789Z,3.95
2023-10-09T06:29:18.391Z,3.90
2023-10-09T06:32:20.168Z,4.32
2023-10-09T06:35:31.517Z,4.45
2023-10-09T06:38:53.398Z,4.28
2023-10-09T06:42:10.057Z,4.60
2023-10-09T06:45:15.370Z,4.03
2023-10-09T06:48:35.343Z,3.97
2023-10-09T06:51:42.037Z,5.15
2023-10-09T06:54:50.899Z,4.90
2023-10-09T06:57:55.493Z,4.55
2023-10-09T07:00:59.974Z,3.92
2023-10-09T07:04:11.914Z,4.22
2023-10-09T07:07:22.108Z,4.60
2023-10-09T07:10:34.423Z,4.63
2023-10-09T07:13:38.214Z,4.30
2023-10-09T07:16:39.837Z,5.07
2023-10-09T07:19:41.325Z,4.25
2023-10-09T07:22:57.393Z,4.15
2023-10-09T07:26:18.633Z,4.43
2023-10-09T07:29:24.052Z,3.72
2023-10-09T07:32:28.646Z,4.03
2023-10-09T07:35:44.079Z,4.32
2023-10-09T07:38:46.671Z,3.70
2023-10-09T07:41:57.546Z,4.10
2023-10-09T07:44:59.374Z,4.07
2023-10-09T07:48:00.951Z,5.00
2023-10-09T07:51:06.356Z,4.32
2023-10-09T07:54:10.767Z,3.67
2023-10-09T07:57:17.454Z,4.22
2023-10-09T08:00:37.550Z,4.05
2023-10-09T08:03:39.320Z,4.20
2023-10-09T08:07:01.970Z,3.83
2023-10-09T08:10:20.405Z,3.80
2023-10-09T08:13:40.543Z,3.58
2023-10-09T08:16:42.646Z,3.53
2023-10-09T08:19:57.454Z,4.22
2023-10-09T08:22:58.874Z,3.83
2023-10-09T08:26:13.693Z,4.35
2023-10-09T08:29:18.920Z,3.75
2023-10-09T08:35:50.814Z,4.00
2023-10-09T08:38:53.330Z,3.63
2023-10-09T08:41:58.936Z,3.35
2023-10-09T08:45:04.631Z,3.70
2023-10-09T08:48:07.256Z,4.43
2023-10-09T08:51:10.092Z,4.85
2023-10-09T08:54:12.954Z,4.55
2023-10-09T08:57:19.765Z,4.82
2023-10-09T09:00:26.943Z,4.15
2023-10-09T09:03:38.063Z,4.35
2023-10-09T09:06:42.285Z,3.40
2023-10-09T09:09:56.310Z,3.53
2023-10-09T09:13:04.810Z,4.32
2023-10-09T09:16:08.312Z,4.15
2023-10-09T09:19:09.776Z,3.92
2023-10-09T09:22:14.204Z,4.07
2023-10-09T09:25:16.752Z,3.90
2023-10-09T09:28:22.598Z,3.67
2023-10-09T09:31:24.156Z,3.42
2023-10-09T09:34:30.344Z,3.92
2023-10-09T09:37:51.525Z,4.05
2023-10-09T09:40:55.238Z,3.88
2023-10-09T09:43:57.677Z,3.30
2023-10-09T09:47:00.934Z,3.65
2023-10-09T09:50:06.457Z,3.90
2023-10-09T09:53:09.560Z,3.33
2023-10-09T09:56:17.985Z,3.80
2023-10-09T09:59:23.129Z,3.67
2023-10-09T10:02:34.910Z,3.00
2023-10-09T10:05:38.296Z,3.33
2023-10-09T10:08:42.025Z,4.03
2023-10-09T10:11:55.612Z,3.58
2023-10-09T10:15:06.809Z,3.72
2023-10-09T10:18:10.571Z,3.90
2023-10-09T10:21:17.172Z,4.10
2023-10-09T10:24:31.740Z,4.43
2023-10-09T10:27:46.064Z,3.65
2023-10-09T10:30:47.767Z,3.70
2023-10-09T10:33:56.035Z,4.05
2023-10-09T10:37:00.691Z,4.93
2023-10-09T10:40:02.553Z,3.70
2023-10-09T10:43:33.224Z,4.25
2023-10-09T10:46:44.011Z,3.25
2023-10-09T10:49:46.113Z,3.72
2023-10-09T10:52:58.522Z,3.65
2023-10-09T10:56:13.221Z,4.53
2023-10-09T10:59:15.246Z,3.80
2023-10-09T11:02:17.716Z,4.43
2023-10-09T11:05:24.988Z,5.15
2023-10-09T11:08:33.358Z,4.70
2023-10-09T11:11:42.174Z,3.65
2023-10-09T11:15:06.391Z,4.25
2023-10-09T11:18:21.404Z,3.90
2023-10-09T11:21:23.123Z,3.72
2023-10-09T11:24:29.475Z,3.75
2023-10-09T11:27:34.114Z,4.00
2023-10-09T11:30:35.700Z,4.07
2023-10-09T11:33:46.786Z,3.67
2023-10-09T11:36:54.026Z,3.25
2023-10-09T11:39:58.679Z,3.55
2023-10-09T11:43:01.063Z,3.15
2023-10-09T11:46:34.340Z,3.60
2023-10-09T11:49:45.315Z,3.25
2023-10-09T11:53:18.440Z,3.67
2023-10-09T11:56:22.422Z,3.60
2023-10-09T11:59:24.589Z,2.83
2023-10-09T12:02:26.100Z,3.20
2023-10-09T12:05:29.282Z,3.33
2023-10-09T12:08:31.199Z,3.05
2023-10-09T12:11:32.973Z,3.50
2023-10-09T12:14:34.872Z,3.17
2023-10-09T12:17:36.303Z,3.30
2023-10-09T12:20:37.751Z,3.00
2023-10-09T12:23:39.068Z,3.15
2023-10-09T12:26:41.683Z,3.10
2023-10-09T12:29:48.043Z,3.00
2023-10-09T12:32:50.487Z,3.22
2023-10-09T12:35:52.468Z,2.95
2023-10-09T12:38:59.986Z,2.90
2023-10-09T12:42:09.672Z,3.05
2023-10-09T12:45:11.596Z,3.17
2023-10-09T12:48:15.736Z,3.28
2023-10-09T12:51:18.091Z,3.03
2023-10-09T12:54:21.261Z,2.63
2023-10-09T12:57:22.682Z,3.15
2023-10-09T13:00:26.889Z,3.35
2023-10-09T13:03:33.884Z,2.83
2023-10-09T13:06:39.243Z,3.03
2023-10-09T13:09:44.089Z,3.63
2023-10-09T13:12:45.750Z,3.08
2023-10-09T13:15:47.108Z,3.05
2023-10-09T13:18:51.220Z,2.88
2023-10-09T13:21:53.015Z,2.92
2023-10-09T13:25:04.646Z,3.10
2023-10-09T13:28:06.264Z,3.30
2023-10-09T13:31:12.138Z,2.75
2023-10-09T13:34:16.301Z,3.42
2023-10-09T13:37:23.003Z,3.00
2023-10-09T13:40:30.236Z,3.15
2023-10-09T13:43:31.660Z,2.75
2023-10-09T13:46:33.117Z,2.97
2023-10-09T13:49:34.984Z,2.85
2023-10-09T13:52:40.308Z,3.00
2023-10-09T13:55:44.510Z,3.20
2023-10-09T13:58:51.798Z,3.42
2023-10-09T14:01:56.166Z,3.45
2023-10-09T14:05:01.914Z,2.92
2023-10-09T14:08:05.363Z,3.47
2023-10-09T14:11:06.776Z,3.20
2023-10-09T14:14:13.063Z,2.80
2023-10-09T14:17:15.614Z,3.25
2023-10-09T14:20:32.899Z,3.42
2023-10-09T14:23:35.675Z,3.38
2023-10-09T14:26:37.177Z,2.97
2023-10-09T14:29:38.835Z,3.08
2023-10-09T14:32:49.128Z,3.13
2023-10-09T14:35:53.348Z,2.88
2023-10-09T14:38:56.210Z,3.08
2023-10-09T14:41:58.407Z,2.95
2023-10-09T14:44:59.842Z,2.92
2023-10-09T14:48:01.472Z,2.80
2023-10-09T14:51:06.067Z,2.95
2023-10-09T14:54:09.060Z,3.70
2023-10-09T14:57:12.610Z,3.05
2023-10-09T15:00:15.716Z,3.05
2023-10-09T15:03:20.805Z,3.50
2023-10-09T15:06:22.622Z,3.28
2023-10-09T15:09:24.214Z,3.05
2023-10-09T15:12:26.741Z,2.72
2023-10-09T15:15:32.054Z,3.40
2023-10-09T15:18:34.306Z,3.03
2023-10-09T15:21:35.730Z,3.10
2023-10-09T15:24:37.441Z,2.80
2023-10-09T15:27:40.280Z,2.80
2023-10-09T15:30:42.219Z,2.85
2023-10-09T15:33:44.320Z,2.80
2023-10-09T15:36:48.055Z,2.95
2023-10-09T15:39:50.923Z,2.53
2023-10-09T15:42:57.043Z,2.70
2023-10-09T15:45:59.815Z,3.42
2023-10-09T15:49:02.037Z,3.55
2023-10-09T15:52:03.460Z,2.95
2023-10-09T15:55:07.346Z,3.67
2023-10-09T15:58:09.855Z,3.42
2023-10-09T16:01:13.927Z,3.00
2023-10-09T16:04:18.255Z,3.20
2023-10-09T16:07:21.193Z,3.90
2023-10-09T16:10:23.548Z,3.47
2023-10-09T16:13:24.954Z,3.25
2023-10-09T16:16:30.347Z,3.03
2023-10-09T16:19:34.310Z,2.85
2023-10-09T16:22:35.644Z,2.95
2023-10-09T16:25:37.165Z,3.45
2023-10-09T16:28:40.706Z,2.90
2023-10-09T16:31:42.367Z,3.67
2023-10-09T16:34:45.294Z,2.88
2023-10-09T16:37:50.600Z,4.03
2023-10-09T16:40:55.721Z,3.92
2023-10-09T16:44:00.698Z,3.63
2023-10-09T16:47:02.358Z,3.55
2023-10-09T16:50:04.519Z,3.83
2023-10-09T16:53:05.968Z,3.42
2023-10-09T16:56:13.333Z,3.13
2023-10-09T16:59:17.732Z,4.07
2023-10-09T17:02:23.882Z,3.45
2023-10-09T17:05:31.432Z,3.78
2023-10-09T17:08:35.829Z,3.45
2023-10-09T17:11:37.754Z,3.28
2023-10-09T17:14:40.138Z,3.63
2023-10-09T17:17:50.785Z,4.65
2023-10-09T17:20:52.896Z,3.83
2023-10-09T17:23:59.398Z,4.70
2023-10-09T17:27:00.705Z,4.35
2023-10-09T17:30:02.092Z,4.10
2023-10-09T17:33:04.908Z,3.85
2023-10-09T17:36:07.179Z,4.68
2023-10-09T17:39:08.489Z,4.28
2023-10-09T17:42:10.408Z,4.47
2023-10-09T17:45:13.930Z,4.13
2023-10-09T17:48:18.428Z,4.53
2023-10-09T17:51:20.109Z,4.30
2023-10-09T17:54:24.508Z,4.15
2023-10-09T17:57:25.872Z,6.63
2023-10-09T18:00:27.360Z,4.68
2023-10-09T18:03:29.950Z,4.63
2023-10-09T18:06:33.269Z,5.88
2023-10-09T18:09:34.708Z,4.90
2023-10-09T18:12:36.090Z,5.28
2023-10-09T18:15:38.706Z,4.53
2023-10-09T18:18:51.345Z,4.00
2023-10-09T18:21:52.775Z,4.90
2023-10-09T18:24:54.142Z,6.88
2023-10-09T18:27:55.665Z,4.45
2023-10-09T18:30:57.167Z,3.95
2023-10-09T18:33:59.248Z,3.85
2023-10-09T18:37:00.891Z,3.88
2023-10-09T18:40:06.977Z,4.18
2023-10-09T18:43:09.503Z,3.63
2023-10-09T18:46:12.310Z,3.63
2023-10-09T18:49:14.766Z,3.47
2023-10-09T18:52:17.779Z,3.90
2023-10-09T18:55:19.429Z,3.80
2023-10-09T18:58:20.869Z,4.18
2023-10-09T19:01:23.879Z,3.92
2023-10-09T19:04:25.620Z,6.75
2023-10-09T19:07:28.206Z,4.05
2023-10-09T19:10:29.539Z,3.70
2023-10-09T19:13:30.966Z,3.67
2023-10-09T19:16:32.480Z,3.83
2023-10-09T19:19:36.153Z,3.85
2023-10-09T19:22:40.724Z,3.85
2023-10-09T19:25:42.828Z,4.22
2023-10-09T19:28:44.748Z,4.65
2023-10-09T19:31:47.218Z,4.05
2023-10-09T19:34:49.107Z,4.13
2023-10-09T19:37:51.511Z,3.92
2023-10-09T19:40:53.464Z,4.30
2023-10-09T19:43:55.067Z,3.63
2023-10-09T19:46:57.510Z,4.70
2023-10-09T19:49:59.778Z,4.90
2023-10-09T19:53:02.442Z,4.95
2023-10-09T19:56:05.728Z,4.68
2023-10-09T19:59:09.014Z,4.13
2023-10-09T20:02:10.591Z,4.22
2023-10-09T20:05:16.269Z,4.95
2023-10-09T20:08:17.840Z,4.97
2023-10-09T20:11:19.732Z,4.47
2023-10-09T20:14:21.543Z,3.88
2023-10-09T20:17:22.961Z,4.25
2023-10-09T20:20:24.393Z,4.30
2023-10-09T20:23:27.220Z,5.00
2023-10-09T20:26:28.791Z,4.25
2023-10-09T20:29:30.233Z,4.35
2023-10-09T20:32:32.626Z,3.95
2023-10-09T20:35:40.573Z,4.97
2023-10-09T20:38:42.089Z,4.47
2023-10-09T20:41:43.414Z,4.70
2023-10-09T20:44:44.757Z,5.32
2023-10-09T20:47:46.893Z,3.90
2023-10-09T20:50:49.524Z,3.90
2023-10-09T20:53:50.854Z,4.38
2023-10-09T20:56:52.469Z,4.80
2023-10-09T20:59:54.809Z,5.00
2023-10-09T21:02:56.553Z,4.13
2023-10-09T21:06:01.303Z,5.18
2023-10-09T21:09:03.207Z,4.85
2023-10-09T21:12:04.612Z,4.60
2023-10-09T21:15:07.679Z,4.38
2023-10-09T21:18:11.768Z,4.15
2023-10-09T21:21:14.636Z,4.00
2023-10-09T21:24:16.217Z,4.65
2023-10-09T21:27:17.984Z,4.78
2023-10-09T21:30:19.330Z,3.95
2023-10-09T21:33:20.742Z,4.60
2023-10-09T21:36:22.127Z,4.47
2023-10-09T21:39:23.573Z,3.90
2023-10-09T21:42:24.874Z,4.18
2023-10-09T21:45:27.937Z,5.28
2023-10-09T21:48:29.259Z,4.95
2023-10-09T21:51:30.762Z,4.88
2023-10-09T21:54:32.085Z,3.88
2023-10-09T21:57:33.401Z,4.32
2023-10-09T22:00:34.759Z,4.03
2023-10-09T22:03:37.025Z,4.68
2023-10-09T22:06:38.815Z,4.60
2023-10-09T22:09:40.971Z,4.50
2023-10-09T22:12:45.812Z,4.55
2023-10-09T22:15:47.393Z,3.80
2023-10-09T22:19:03.039Z,4.65
2023-10-09T22:22:12.622Z,4.88
2023-10-09T22:25:14.277Z,4.10
2023-10-09T22:28:15.802Z,4.07
2023-10-09T22:31:17.733Z,4.20
2023-10-09T22:34:20.877Z,4.40
2023-10-09T22:37:27.738Z,4.47
2023-10-09T22:40:29.064Z,4.22
2023-10-09T22:43:30.363Z,4.80
2023-10-09T22:46:31.720Z,5.55
2023-10-09T22:49:35.703Z,4.93
2023-10-09T22:52:37.039Z,5.68
2023-10-09T22:55:40.640Z,5.43
2023-10-09T22:58:52.342Z,4.22
2023-10-09T23:01:56.263Z,5.03
2023-10-09T23:05:04.720Z,4.60
2023-10-09T23:08:17.655Z,4.25
2023-10-09T23:11:26.351Z,4.90
2023-10-09T23:14:32.255Z,4.35
2023-10-09T23:17:47.922Z,4.80
2023-10-09T23:20:51.499Z,5.38
2023-10-09T23:24:09.523Z,4.13
2023-10-09T23:27:26.810Z,5.13
2023-10-09T23:30:28.954Z,5.45
2023-10-09T23:33:31.223Z,5.32
2023-10-09T23:36:32.689Z,5.35
2023-10-09T23:39:57.248Z,5.18
2023-10-09T23:42:59.018Z,5.78
2023-10-09T23:46:01.695Z,6.22
2023-10-09T23:49:07.286Z,6.13
2023-10-09T23:52:08.619Z,6.55
2023-10-09T23:55:13.444Z,5.32
2023-10-09T23:58:19.628Z,5.72
